Time;durP1;ratioP1;P1;durP2;ratioP2;P2;SDS_P1;SDS_P2;PMS_P1;PMS_P2;Temp;Humidity;BMP_temperature;BMP_pressure;BME280_temperature;BME280_humidity;BME280_pressure;Samples;Min_cycle;Max_cycle;Signal;HPM_P1;HPM_P2
2023/05/14 00:00:36;;;;;;;2.90;2.80;;;7.70;99.90;;;;;;4976124;28;20203;-73
2023/05/14 00:03:03;;;;;;;2.67;2.58;;;7.70;99.90;;;;;;4975990;28;20199;-73
2023/05/14 00:05:29;;;;;;;2.53;2.42;;;7.60;99.90;;;;;;4975984;28;20223;-73
2023/05/14 00:07:56;;;;;;;3.03;2.92;;;7.60;99.90;;;;;;4976038;28;20219;-73
2023/05/14 00:10:23;;;;;;;2.83;2.72;;;7.50;99.90;;;;;;4975958;28;20210;-73
2023/05/14 00:12:51;;;;;;;2.63;2.53;;;7.50;99.90;;;;;;4976010;28;20210;-73
2023/05/14 00:15:18;;;;;;;2.42;2.40;;;7.40;99.90;;;;;;4975554;28;20235;-73
2023/05/14 00:17:45;;;;;;;2.47;2.45;;;7.30;99.90;;;;;;4975385;28;20538;-73
2023/05/14 00:20:12;;;;;;;2.67;2.58;;;7.20;99.90;;;;;;4975417;28;20706;-73
2023/05/14 00:22:39;;;;;;;2.70;2.60;;;7.10;99.90;;;;;;4976129;28;20211;-74
2023/05/14 00:25:08;;;;;;;2.13;2.13;;;7.00;99.90;;;;;;4975334;28;20575;-74
2023/05/14 00:27:36;;;;;;;2.05;2.05;;;7.00;99.90;;;;;;4975262;28;20223;-73
2023/05/14 00:30:06;;;;;;;2.72;2.63;;;6.90;99.90;;;;;;4975541;28;20239;-73
2023/05/14 00:32:33;;;;;;;3.03;2.90;;;6.80;99.90;;;;;;4975652;28;20204;-73
2023/05/14 00:35:01;;;;;;;2.60;2.50;;;6.70;99.90;;;;;;4975410;28;20238;-74
2023/05/14 00:37:28;;;;;;;2.28;2.28;;;6.70;99.90;;;;;;4975559;28;20206;-73
2023/05/14 00:39:55;;;;;;;3.03;2.92;;;6.60;99.90;;;;;;4975499;28;20207;-73
2023/05/14 00:42:21;;;;;;;2.78;2.67;;;6.60;99.90;;;;;;4975702;28;20710;-74
2023/05/14 00:44:48;;;;;;;3.17;3.08;;;6.60;99.90;;;;;;4975429;28;20625;-75
2023/05/14 00:47:16;;;;;;;3.13;3.03;;;6.60;99.90;;;;;;4976021;28;20223;-75
2023/05/14 00:49:43;;;;;;;3.03;2.92;;;6.60;99.90;;;;;;4975196;28;20207;-75
2023/05/14 00:52:11;;;;;;;3.22;3.13;;;6.70;99.90;;;;;;4974641;28;20203;-75
2023/05/14 00:54:38;;;;;;;2.92;2.83;;;6.80;99.90;;;;;;4974991;28;20219;-75
2023/05/14 00:57:06;;;;;;;2.80;2.70;;;6.90;99.90;;;;;;4975085;28;20202;-75
2023/05/14 00:59:33;;;;;;;3.10;3.00;;;6.90;99.90;;;;;;4975162;28;20203;-74
2023/05/14 01:02:00;;;;;;;2.80;2.70;;;7.00;99.90;;;;;;4975231;28;20543;-74
2023/05/14 01:04:28;;;;;;;3.40;3.20;;;7.10;99.90;;;;;;4974957;28;20223;-75
2023/05/14 01:07:04;;;;;;;2.80;2.70;;;7.20;99.90;;;;;;4974816;28;20229;-75
2023/05/14 01:09:38;;;;;;;2.90;2.80;;;7.20;99.90;;;;;;4974921;28;20187;-75
2023/05/14 01:12:11;;;;;;;2.75;2.65;;;7.30;99.90;;;;;;4975025;28;20191;-75
2023/05/14 01:14:52;;;;;;;2.65;2.55;;;7.30;99.90;;;;;;4975932;28;20266;-74
2023/05/14 01:17:20;;;;;;;2.30;2.30;;;7.40;99.90;;;;;;4974747;28;20682;-74
2023/05/14 01:19:49;;;;;;;1.90;1.90;;;7.50;99.90;;;;;;4975020;28;20304;-74
2023/05/14 01:22:18;;;;;;;2.40;2.40;;;7.50;99.90;;;;;;4974790;28;20246;-74
2023/05/14 01:24:44;;;;;;;2.45;2.40;;;7.50;99.90;;;;;;4974577;28;20230;-74
2023/05/14 01:27:17;;;;;;;2.45;2.45;;;7.60;99.90;;;;;;4974683;28;20230;-74
2023/05/14 01:29:49;;;;;;;2.20;2.20;;;7.60;99.90;;;;;;4974585;28;20198;-74
2023/05/14 06:03:34;;;;;;;6.47;5.97;;;10.20;99.90;;;;;;5299723;23;20250;-73
2023/05/14 06:06:00;;;;;;;7.13;6.57;;;10.20;99.90;;;;;;4973983;28;20305;-72
2023/05/14 06:08:27;;;;;;;9.73;8.73;;;10.30;99.90;;;;;;4974143;28;20223;-72
2023/05/14 06:10:54;;;;;;;8.32;7.50;;;10.30;99.90;;;;;;4974199;28;20207;-72
2023/05/14 06:13:20;;;;;;;8.60;7.80;;;10.30;99.90;;;;;;4974114;28;20227;-72
2023/05/14 06:15:47;;;;;;;9.68;8.50;;;10.40;99.90;;;;;;4973893;28;20207;-72
2023/05/14 06:18:14;;;;;;;10.05;9.02;;;10.40;99.90;;;;;;4973807;28;20670;-72
2023/05/14 06:20:42;;;;;;;10.27;9.18;;;10.40;99.90;;;;;;4997167;23;20227;-72
2023/05/14 06:23:11;;;;;;;9.23;7.97;;;10.50;99.90;;;;;;4973798;28;20671;-73
2023/05/14 06:25:37;;;;;;;8.55;7.75;;;10.50;99.90;;;;;;4974053;28;20295;-73
2023/05/14 06:28:04;;;;;;;7.40;6.80;;;10.60;99.90;;;;;;4973699;28;20593;-74
2023/05/14 06:30:31;;;;;;;9.00;8.10;;;10.60;99.90;;;;;;4973788;28;20219;-70
2023/05/14 06:32:58;;;;;;;9.63;8.43;;;10.70;99.90;;;;;;4973636;28;20670;-72
2023/05/14 06:35:24;;;;;;;7.88;7.18;;;10.70;99.90;;;;;;4974040;28;20305;-72
2023/05/14 06:37:52;;;;;;;7.32;6.68;;;10.80;99.90;;;;;;4974235;28;20543;-74
2023/05/14 06:40:19;;;;;;;7.28;6.65;;;10.90;99.90;;;;;;4974268;28;20224;-72
2023/05/14 06:42:46;;;;;;;8.60;7.75;;;11.00;99.90;;;;;;4973648;28;20210;-70
2023/05/14 06:45:13;;;;;;;9.15;8.25;;;11.10;99.90;;;;;;4973719;28;20667;-70
2023/05/14 06:47:40;;;;;;;8.40;7.63;;;11.30;99.90;;;;;;4974083;28;20219;-70
2023/05/14 06:50:07;;;;;;;7.57;6.75;;;11.50;99.90;;;;;;4973782;28;20230;-69
2023/05/14 06:52:34;;;;;;;5.97;5.47;;;11.80;99.90;;;;;;4977332;28;20214;-70
2023/05/14 06:55:02;;;;;;;5.93;5.43;;;12.10;99.90;;;;;;4977779;28;20610;-69
2023/05/14 06:57:28;;;;;;;4.57;4.28;;;12.30;99.90;;;;;;4977271;28;20210;-69
2023/05/14 06:59:56;;;;;;;6.22;5.72;;;12.60;99.90;;;;;;4977327;28;20235;-69
2023/05/14 07:02:23;;;;;;;8.30;7.50;;;12.70;99.90;;;;;;4977342;28;20204;-72
2023/05/14 07:04:49;;;;;;;6.93;6.28;;;12.80;99.90;;;;;;4977468;28;20234;-71
2023/05/14 07:07:19;;;;;;;5.85;5.35;;;12.90;99.90;;;;;;4976961;28;20678;-71
2023/05/14 07:09:46;;;;;;;5.50;5.07;;;12.90;99.90;;;;;;4977170;28;20234;-71
2023/05/14 07:12:14;;;;;;;4.93;4.63;;;12.90;99.90;;;;;;4977106;28;20207;-71
2023/05/14 07:14:40;;;;;;;5.53;5.03;;;13.10;99.90;;;;;;4976810;28;20518;-71
2023/05/14 07:17:07;;;;;;;5.55;4.93;;;13.20;99.90;;;;;;4976988;28;20203;-71
2023/05/14 07:19:34;;;;;;;5.20;4.70;;;13.20;99.90;;;;;;4976780;28;20235;-73
2023/05/14 07:22:00;;;;;;;4.00;3.80;;;13.30;99.90;;;;;;4976942;28;20187;-73
2023/05/14 07:24:27;;;;;;;4.03;3.80;;;13.30;99.90;;;;;;4976990;28;20204;-73
2023/05/14 07:26:56;;;;;;;4.10;3.80;;;13.40;99.90;;;;;;4976787;28;20208;-73
2023/05/14 07:29:24;;;;;;;3.75;3.55;;;13.30;99.90;;;;;;4976853;28;20235;-71
2023/05/14 07:31:51;;;;;;;3.92;3.72;;;13.40;99.90;;;;;;4976643;28;20216;-71
2023/05/14 07:34:18;;;;;;;3.88;3.65;;;13.40;99.90;;;;;;4976244;28;20235;-72
2023/05/14 07:36:45;;;;;;;3.92;3.72;;;13.40;99.90;;;;;;4976256;28;20642;-72
2023/05/14 07:39:12;;;;;;;3.65;3.35;;;13.40;99.90;;;;;;4976621;28;20211;-73
2023/05/14 07:41:39;;;;;;;3.13;3.03;;;13.40;99.90;;;;;;4976613;28;20210;-71
2023/05/14 07:44:05;;;;;;;4.25;3.95;;;13.40;99.90;;;;;;4976437;28;20552;-72
2023/05/14 07:46:33;;;;;;;3.60;3.40;;;13.30;99.90;;;;;;4976432;28;20214;-72
2023/05/14 07:49:00;;;;;;;3.55;3.35;;;13.40;99.90;;;;;;4976453;28;20230;-73
2023/05/14 07:51:27;;;;;;;3.17;2.97;;;13.30;99.90;;;;;;4976159;28;20714;-72
2023/05/14 07:53:54;;;;;;;2.80;2.70;;;13.30;99.90;;;;;;4976477;28;20214;-72
2023/05/14 07:56:21;;;;;;;2.70;2.60;;;13.30;99.90;;;;;;4976802;28;20203;-72
2023/05/14 07:58:48;;;;;;;3.08;2.88;;;13.30;99.90;;;;;;4977933;28;20195;-72
2023/05/14 08:01:14;;;;;;;2.72;2.63;;;13.30;99.90;;;;;;4977335;28;20627;-72
2023/05/14 08:03:43;;;;;;;2.75;2.65;;;13.30;99.90;;;;;;4977593;28;20199;-72
2023/05/14 08:06:09;;;;;;;2.65;2.55;;;13.20;99.90;;;;;;4976162;28;20208;-71
2023/05/14 08:08:36;;;;;;;2.92;2.83;;;13.20;99.90;;;;;;4976078;28;20227;-71
2023/05/14 08:11:03;;;;;;;3.30;3.00;;;13.20;99.90;;;;;;4975956;28;20222;-72
2023/05/14 08:13:30;;;;;;;3.20;3.00;;;13.10;99.90;;;;;;4975904;28;20211;-72
2023/05/14 08:15:56;;;;;;;7.93;7.22;;;13.10;99.90;;;;;;4975955;28;20203;-72
2023/05/14 08:18:23;;;;;;;4.47;4.07;;;13.00;99.90;;;;;;4975903;28;20227;-72
2023/05/14 08:20:51;;;;;;;3.95;3.67;;;13.10;99.90;;;;;;4975493;28;20235;-71
2023/05/14 08:23:18;;;;;;;3.72;3.53;;;13.10;99.90;;;;;;4975753;28;20298;-71
2023/05/14 08:25:45;;;;;;;9.20;7.75;;;13.20;99.90;;;;;;4975630;28;20211;-71
2023/05/14 08:28:12;;;;;;;4.20;3.97;;;13.50;99.90;;;;;;4975562;28;20238;-70
2023/05/14 08:30:38;;;;;;;3.50;3.40;;;13.80;99.90;;;;;;4975619;28;20223;-72
2023/05/14 08:33:05;;;;;;;3.60;3.30;;;14.00;99.90;;;;;;4975690;28;20203;-72
2023/05/14 08:35:32;;;;;;;2.90;2.80;;;14.20;99.90;;;;;;4975616;28;20207;-72
2023/05/14 08:38:00;;;;;;;4.65;4.22;;;14.40;99.90;;;;;;4976332;28;20210;-72
2023/05/14 08:40:27;;;;;;;4.00;3.60;;;14.60;99.90;;;;;;4975652;28;20744;-73
2023/05/14 08:42:55;;;;;;;3.30;3.10;;;14.70;99.90;;;;;;4975515;28;20203;-73
2023/05/14 08:45:28;;;;;;;2.80;2.60;;;14.60;99.90;;;;;;4975409;28;20208;-73
2023/05/14 08:47:57;;;;;;;3.47;3.28;;;14.50;99.90;;;;;;4976166;28;20188;-73
2023/05/14 08:50:30;;;;;;;2.67;2.58;;;14.30;99.90;;;;;;4976163;28;20230;-70
2023/05/14 08:52:57;;;;;;;3.35;3.25;;;14.20;99.90;;;;;;4976724;28;20183;-71
2023/05/14 08:55:27;;;;;;;3.17;2.97;;;14.10;99.90;;;;;;4976701;28;20207;-71
2023/05/14 08:57:54;;;;;;;3.03;2.92;;;13.90;99.90;;;;;;4976930;28;20188;-71
2023/05/14 09:00:21;;;;;;;5.32;3.83;;;13.70;99.90;;;;;;4975577;28;20310;-71
2023/05/14 09:02:49;;;;;;;3.22;3.03;;;13.50;99.90;;;;;;4974857;28;20290;-71
2023/05/14 09:05:18;;;;;;;3.90;3.65;;;13.30;99.90;;;;;;4975171;28;20238;-72
2023/05/14 09:07:45;;;;;;;3.47;3.35;;;13.10;99.90;;;;;;4975017;28;20203;-72
2023/05/14 09:10:12;;;;;;;3.55;3.35;;;13.10;99.90;;;;;;4974777;28;20290;-72
2023/05/14 09:12:40;;;;;;;3.45;3.25;;;13.00;99.90;;;;;;4974913;28;20239;-70
2023/05/14 09:15:07;;;;;;;4.20;3.90;;;12.90;99.90;;;;;;4974868;28;20187;-70
2023/05/14 09:17:35;;;;;;;3.50;3.30;;;12.90;99.90;;;;;;4975035;28;20238;-70
2023/05/14 09:20:03;;;;;;;4.18;3.88;;;13.00;99.90;;;;;;4974816;28;20231;-72
2023/05/14 09:22:31;;;;;;;4.22;3.67;;;13.10;99.90;;;;;;4974440;28;20685;-70
2023/05/14 09:25:06;;;;;;;3.92;3.72;;;13.30;99.90;;;;;;4974819;28;20215;-70
2023/05/14 09:27:33;;;;;;;3.50;3.30;;;13.30;99.90;;;;;;4975434;28;20194;-71
2023/05/14 09:30:09;;;;;;;2.78;2.67;;;13.40;99.90;;;;;;4974259;28;20595;-71
2023/05/14 09:32:37;;;;;;;3.05;2.95;;;13.50;99.90;;;;;;4974650;28;20214;-71
2023/05/14 09:35:16;;;;;;;4.70;4.30;;;13.70;99.90;;;;;;4974795;28;20207;-71
2023/05/14 09:37:43;;;;;;;4.18;3.97;;;13.70;99.90;;;;;;4974790;28;20240;-71
2023/05/14 09:40:12;;;;;;;3.70;3.50;;;13.80;99.90;;;;;;4974531;28;20219;-71
2023/05/14 09:42:38;;;;;;;3.35;3.15;;;13.80;99.90;;;;;;4974363;28;20307;-71
2023/05/14 09:45:08;;;;;;;3.70;3.50;;;13.80;99.90;;;;;;4974435;28;20207;-71
2023/05/14 09:47:35;;;;;;;3.30;3.10;;;13.70;99.90;;;;;;4974493;28;20214;-71
2023/05/14 09:50:01;;;;;;;3.70;3.50;;;13.80;99.90;;;;;;4974289;28;20231;-71
2023/05/14 09:52:28;;;;;;;3.60;3.40;;;14.00;99.90;;;;;;4974559;28;20215;-71
2023/05/14 09:54:55;;;;;;;3.00;2.90;;;14.00;99.90;;;;;;4974692;28;20203;-71
2023/05/14 09:57:21;;;;;;;3.10;3.00;;;14.00;99.90;;;;;;4974299;28;20611;-71
2023/05/14 09:59:48;;;;;;;2.65;2.55;;;14.00;99.90;;;;;;4974283;28;20235;-69
2023/05/14 10:02:22;;;;;;;3.00;2.88;;;13.90;99.90;;;;;;4974321;28;20196;-71
2023/05/14 10:04:51;;;;;;;4.88;4.57;;;13.80;99.90;;;;;;4974642;28;20296;-70
2023/05/14 10:07:22;;;;;;;4.80;4.40;;;13.60;99.90;;;;;;4974771;28;20227;-71
2023/05/14 10:09:50;;;;;;;4.10;3.80;;;13.30;99.90;;;;;;4974522;28;20643;-71
2023/05/14 10:12:22;;;;;;;7.50;5.07;;;13.20;99.90;;;;;;4974712;28;20298;-71
2023/05/14 10:14:52;;;;;;;7.32;6.63;;;13.00;99.90;;;;;;4974941;28;20195;-71
2023/05/14 10:17:21;;;;;;;5.85;4.68;;;12.80;99.90;;;;;;4974443;28;20574;-70
2023/05/14 10:19:53;;;;;;;6.25;5.35;;;12.70;99.90;;;;;;4974377;28;20231;-70
2023/05/14 10:22:23;;;;;;;5.63;5.13;;;12.60;99.90;;;;;;4974577;28;20191;-70
2023/05/14 10:24:52;;;;;;;6.53;5.60;;;12.50;99.90;;;;;;4975539;28;20226;-71
2023/05/14 10:27:20;;;;;;;5.60;5.10;;;12.40;99.90;;;;;;4978236;28;20207;-70
2023/05/14 10:29:53;;;;;;;5.30;4.80;;;12.40;99.90;;;;;;4977825;28;20227;-69
2023/05/14 10:32:24;;;;;;;5.05;4.70;;;12.50;99.90;;;;;;4978022;28;20219;-70
2023/05/14 10:34:52;;;;;;;4.43;4.13;;;12.60;99.90;;;;;;4978046;28;20199;-70
2023/05/14 10:37:21;;;;;;;5.10;4.65;;;12.70;99.90;;;;;;4977851;28;20294;-71
2023/05/14 10:39:49;;;;;;;4.25;3.95;;;12.70;99.90;;;;;;4977460;28;20731;-70
2023/05/14 10:42:18;;;;;;;4.80;4.40;;;12.80;99.90;;;;;;4977447;28;20667;-71
2023/05/14 10:44:51;;;;;;;5.53;5.13;;;12.90;99.90;;;;;;4977803;28;20235;-71
2023/05/14 10:47:18;;;;;;;5.00;4.70;;;12.90;99.90;;;;;;4977726;28;20195;-71
2023/05/14 10:49:51;;;;;;;5.15;4.75;;;13.00;99.90;;;;;;4977417;28;20239;-70
2023/05/14 10:52:19;;;;;;;6.10;5.60;;;13.10;99.90;;;;;;4977510;28;20196;-71
2023/05/14 10:54:50;;;;;;;5.35;4.95;;;13.20;99.90;;;;;;4977561;28;20213;-71
2023/05/14 10:57:18;;;;;;;6.05;5.55;;;13.40;99.90;;;;;;4977637;28;20599;-72
2023/05/14 10:59:47;;;;;;;5.40;4.90;;;13.60;99.90;;;;;;4977609;28;20219;-72
2023/05/14 11:02:21;;;;;;;4.55;4.25;;;13.80;99.90;;;;;;4977675;28;20204;-72
2023/05/14 11:04:58;;;;;;;5.07;4.68;;;14.20;99.90;;;;;;4978003;28;20275;-73
2023/05/14 11:07:28;;;;;;;4.55;4.25;;;14.30;99.90;;;;;;4977338;28;20217;-73
2023/05/14 11:10:00;;;;;;;4.47;4.18;;;14.40;99.90;;;;;;4977102;28;20442;-73
2023/05/14 11:12:27;;;;;;;5.38;4.97;;;14.50;99.90;;;;;;4977224;28;20195;-73
2023/05/14 11:14:56;;;;;;;5.15;4.75;;;14.60;99.90;;;;;;4976713;28;20682;-73
2023/05/14 11:17:23;;;;;;;4.18;3.88;;;14.70;99.90;;;;;;4977286;28;20199;-73
2023/05/14 11:19:50;;;;;;;4.22;4.00;;;14.90;99.90;;;;;;4976295;28;20240;-72
2023/05/14 11:22:18;;;;;;;4.47;4.10;;;15.00;99.90;;;;;;4976965;28;20293;-72
2023/05/14 11:24:44;;;;;;;3.70;3.50;;;15.20;99.90;;;;;;4976705;28;20206;-72
2023/05/14 11:27:11;;;;;;;4.65;4.35;;;15.50;99.90;;;;;;4976431;28;20207;-71
2023/05/14 11:29:38;;;;;;;3.40;3.20;;;15.50;99.90;;;;;;4976363;28;20235;-71
2023/05/14 11:32:06;;;;;;;4.68;4.28;;;15.80;99.90;;;;;;4976594;28;20203;-71
2023/05/14 11:34:33;;;;;;;4.63;4.30;;;16.10;99.90;;;;;;4976375;28;20214;-71
2023/05/14 11:37:03;;;;;;;3.22;3.13;;;16.50;99.90;;;;;;4975588;28;20213;-71
2023/05/14 11:39:31;;;;;;;2.90;2.80;;;16.80;99.90;;;;;;4976308;28;20225;-71
2023/05/14 11:41:58;;;;;;;2.83;2.72;;;17.10;99.90;;;;;;4976119;28;20266;-72
2023/05/14 11:44:25;;;;;;;4.03;3.50;;;17.40;99.90;;;;;;4975892;28;20607;-72
2023/05/14 11:46:56;;;;;;;4.35;3.95;;;17.50;99.90;;;;;;4976183;28;20203;-72
2023/05/14 11:49:23;;;;;;;4.03;3.72;;;17.60;99.90;;;;;;4975731;28;20713;-72
2023/05/14 11:51:50;;;;;;;3.63;3.42;;;17.60;99.90;;;;;;4976091;28;20237;-71
2023/05/14 11:54:17;;;;;;;3.50;3.30;;;17.40;99.90;;;;;;4975987;28;20202;-72
2023/05/14 11:56:49;;;;;;;3.33;3.15;;;17.10;99.90;;;;;;4975980;28;20211;-71
2023/05/14 11:59:18;;;;;;;2.70;2.60;;;16.90;99.90;;;;;;4976091;28;20221;-71
2023/05/14 12:01:45;;;;;;;4.15;3.85;;;16.70;99.90;;;;;;4976060;28;20294;-72
2023/05/14 12:04:12;;;;;;;4.28;3.97;;;16.40;99.90;;;;;;4976417;28;20526;-72
2023/05/14 12:06:39;;;;;;;4.07;3.78;;;16.10;99.90;;;;;;4975526;28;20211;-72
2023/05/14 12:09:06;;;;;;;4.82;4.32;;;15.80;99.90;;;;;;4975733;28;20261;-72
2023/05/14 12:11:35;;;;;;;4.70;4.30;;;15.80;99.90;;;;;;4975778;28;20207;-72
2023/05/14 12:14:10;;;;;;;10.50;7.57;;;15.70;99.90;;;;;;4975787;28;20210;-72
2023/05/14 12:16:40;;;;;;;4.78;4.38;;;15.80;99.90;;;;;;4976715;28;20318;-71
2023/05/14 12:19:09;;;;;;;3.78;3.50;;;15.90;99.90;;;;;;4975524;28;20222;-71
2023/05/14 12:21:36;;;;;;;3.45;3.17;;;15.90;99.90;;;;;;4975824;28;20603;-71
2023/05/14 12:24:03;;;;;;;2.95;2.75;;;16.00;99.90;;;;;;4975391;28;20207;-71
2023/05/14 12:26:33;;;;;;;2.78;2.58;;;16.20;99.90;;;;;;4975614;28;20210;-71
2023/05/14 12:29:00;;;;;;;2.75;2.65;;;16.30;99.90;;;;;;4975300;28;20639;-71
2023/05/14 12:31:32;;;;;;;3.30;3.20;;;16.30;99.90;;;;;;4975467;28;20326;-71
2023/05/14 12:33:59;;;;;;;3.08;2.88;;;16.40;99.90;;;;;;4976236;28;20210;-72
2023/05/14 12:36:26;;;;;;;2.70;2.60;;;16.50;99.90;;;;;;4976170;28;20241;-72
2023/05/14 12:38:58;;;;;;;2.88;2.70;;;16.40;99.90;;;;;;4975583;28;20207;-71
2023/05/14 12:41:25;;;;;;;2.83;2.72;;;16.40;99.90;;;;;;4976819;28;20250;-71
2023/05/14 12:43:52;;;;;;;2.40;2.30;;;16.30;99.90;;;;;;4976037;28;20214;-71
2023/05/14 12:46:19;;;;;;;3.03;2.92;;;16.20;99.90;;;;;;4975404;28;20210;-77
2023/05/14 12:48:47;;;;;;;2.97;2.88;;;16.20;99.90;;;;;;4975299;28;20206;-71
2023/05/14 12:51:13;;;;;;;3.28;3.17;;;16.20;99.90;;;;;;4975194;28;20222;-71
2023/05/14 12:53:40;;;;;;;2.92;2.67;;;16.10;99.90;;;;;;4975207;28;20203;-72
2023/05/14 12:56:07;;;;;;;3.00;2.70;;;16.00;99.90;;;;;;4975168;28;20219;-71
2023/05/14 12:58:34;;;;;;;2.67;2.58;;;15.90;99.90;;;;;;4974682;28;20670;-71
2023/05/14 13:01:01;;;;;;;2.80;2.60;;;16.00;99.90;;;;;;4974625;28;20567;-71
2023/05/14 13:03:28;;;;;;;2.80;2.65;;;16.10;99.90;;;;;;4974777;28;20214;-71
2023/05/14 13:05:56;;;;;;;3.22;3.03;;;16.10;99.90;;;;;;4975216;28;20206;-71
2023/05/14 13:08:24;;;;;;;3.40;2.65;;;16.10;99.90;;;;;;4974849;28;20552;-71
2023/05/14 13:10:50;;;;;;;3.47;3.28;;;16.10;99.90;;;;;;4974740;28;20227;-72
2023/05/14 13:13:17;;;;;;;2.85;2.70;;;16.20;99.90;;;;;;4974792;28;20213;-72
2023/05/14 13:15:45;;;;;;;2.38;2.28;;;16.10;99.90;;;;;;4974566;28;20210;-71
2023/05/14 13:18:13;;;;;;;3.17;2.97;;;16.10;99.90;;;;;;4974673;28;20199;-71
2023/05/14 13:20:40;;;;;;;3.13;2.90;;;16.20;99.90;;;;;;4974188;28;20650;-71
2023/05/14 13:23:08;;;;;;;2.83;2.72;;;16.20;99.90;;;;;;4974723;28;20214;-72
2023/05/14 13:25:35;;;;;;;2.75;2.55;;;16.20;99.90;;;;;;4974631;28;20207;-71
2023/05/14 13:28:02;;;;;;;2.85;2.65;;;16.30;99.90;;;;;;4974556;28;20210;-72
2023/05/14 13:30:29;;;;;;;2.60;2.50;;;16.40;99.90;;;;;;4975129;28;20670;-72
2023/05/14 13:32:55;;;;;;;2.63;2.42;;;16.60;99.90;;;;;;4974518;28;20194;-70
2023/05/14 13:35:22;;;;;;;1.85;1.73;;;16.60;99.90;;;;;;4974779;28;20190;-69
2023/05/14 13:37:49;;;;;;;3.80;3.53;;;16.60;99.90;;;;;;4974534;28;20213;-69
2023/05/14 13:40:17;;;;;;;2.50;2.40;;;16.70;99.90;;;;;;4975061;28;20305;-69
2023/05/14 13:42:44;;;;;;;3.00;2.90;;;16.80;99.90;;;;;;4974461;28;20207;-70
2023/05/14 13:45:11;;;;;;;2.70;2.60;;;16.80;99.90;;;;;;4974454;28;20563;-69
2023/05/14 13:47:38;;;;;;;4.57;2.42;;;16.90;99.90;;;;;;4974543;28;20240;-69
2023/05/14 13:50:06;;;;;;;2.47;2.38;;;17.00;99.90;;;;;;4974056;28;20682;-71
2023/05/14 13:52:33;;;;;;;1.90;1.90;;;16.90;99.90;;;;;;4974425;28;20289;-71
2023/05/14 13:55:00;;;;;;;1.67;1.58;;;16.90;92.30;;;;;;4974108;28;20596;-71
2023/05/14 13:57:28;;;;;;;1.77;1.67;;;16.80;93.40;;;;;;4974055;28;20666;-71
2023/05/14 13:59:55;;;;;;;2.95;2.45;;;17.00;99.90;;;;;;4975085;28;20230;-71
2023/05/14 14:02:21;;;;;;;3.40;2.63;;;17.10;86.90;;;;;;4978460;28;20231;-70
2023/05/14 14:04:48;;;;;;;2.33;2.22;;;17.00;86.00;;;;;;4978171;28;20230;-70
2023/05/14 14:07:15;;;;;;;2.35;2.25;;;17.00;88.80;;;;;;4978148;28;20206;-71
2023/05/14 14:09:42;;;;;;;2.58;2.38;;;17.10;88.00;;;;;;4977618;28;20690;-71
2023/05/14 14:12:09;;;;;;;1.73;1.70;;;17.10;84.50;;;;;;4978037;28;20190;-71
2023/05/14 14:14:37;;;;;;;2.67;1.70;;;17.10;90.30;;;;;;4978011;28;20202;-71
2023/05/14 14:17:04;;;;;;;1.63;1.63;;;16.90;87.80;;;;;;4977962;28;20210;-71
2023/05/14 14:19:31;;;;;;;1.40;1.40;;;16.70;91.20;;;;;;4977599;28;20234;-71
2023/05/14 14:21:57;;;;;;;2.10;2.00;;;16.80;98.50;;;;;;4977905;28;20191;-71
2023/05/14 14:24:24;;;;;;;1.70;1.70;;;16.90;92.50;;;;;;4977607;28;20547;-71
2023/05/14 14:26:51;;;;;;;1.80;1.77;;;16.90;93.50;;;;;;4977301;28;20658;-71
2023/05/14 14:29:18;;;;;;;1.98;1.85;;;16.90;93.80;;;;;;4977248;28;20210;-70
2023/05/14 14:31:46;;;;;;;1.83;1.77;;;16.80;96.40;;;;;;4977624;28;20254;-70
2023/05/14 14:34:12;;;;;;;1.80;1.70;;;16.70;96.30;;;;;;4977817;28;20214;-70
2023/05/14 14:36:39;;;;;;;1.75;1.65;;;16.50;97.20;;;;;;4977830;28;20187;-70
2023/05/14 14:39:06;;;;;;;1.92;1.90;;;16.30;99.90;;;;;;4977536;28;20619;-70
2023/05/14 14:41:32;;;;;;;2.17;2.08;;;16.30;99.90;;;;;;4977186;28;20667;-70
2023/05/14 14:44:01;;;;;;;1.80;1.80;;;16.10;99.90;;;;;;4978099;28;20184;-70
2023/05/14 14:46:28;;;;;;;1.70;1.70;;;16.00;99.90;;;;;;4977525;28;20203;-69
2023/05/14 14:48:56;;;;;;;2.20;2.10;;;16.00;99.90;;;;;;4977468;28;20206;-69
2023/05/14 14:51:22;;;;;;;1.95;1.85;;;15.80;99.90;;;;;;4977329;28;20231;-69
2023/05/14 14:53:49;;;;;;;1.60;1.60;;;15.70;99.90;;;;;;4977167;28;20554;-69
2023/05/14 14:56:16;;;;;;;1.33;1.33;;;15.30;80.50;;;;;;4977428;28;20203;-70
2023/05/14 14:58:44;;;;;;;1.42;1.38;;;15.00;81.90;;;;;;4977005;28;20635;-69
2023/05/14 15:01:10;;;;;;;1.38;1.10;;;14.70;85.70;;;;;;4976881;28;20304;-70
2023/05/14 15:03:37;;;;;;;1.20;1.20;;;14.60;90.20;;;;;;4977239;28;20223;-69
2023/05/14 15:06:05;;;;;;;1.00;1.00;;;14.40;89.30;;;;;;4976986;28;20199;-69
2023/05/14 15:08:34;;;;;;;1.23;1.13;;;14.10;94.80;;;;;;4976993;28;20199;-69
2023/05/14 15:11:00;;;;;;;1.38;1.30;;;13.90;97.90;;;;;;4976014;28;20347;-69
2023/05/14 15:13:28;;;;;;;1.50;1.50;;;13.70;99.90;;;;;;4976544;28;20211;-69
2023/05/14 15:15:54;;;;;;;1.80;1.70;;;13.60;99.90;;;;;;4976408;28;20647;-69
2023/05/14 15:18:21;;;;;;;2.15;1.95;;;13.40;99.90;;;;;;4976701;28;20218;-69
2023/05/14 15:20:48;;;;;;;5.10;2.70;;;13.30;99.90;;;;;;4976350;28;20231;-68
2023/05/14 15:23:16;;;;;;;3.13;2.83;;;13.00;99.90;;;;;;4976782;28;20203;-72
2023/05/14 15:25:43;;;;;;;2.75;2.40;;;12.60;99.90;;;;;;4976681;28;20219;-72
2023/05/14 15:28:09;;;;;;;2.45;2.25;;;12.30;99.90;;;;;;4976532;28;20210;-70
2023/05/14 15:30:36;;;;;;;2.03;1.92;;;12.00;99.90;;;;;;4976475;28;20234;-69
2023/05/14 15:33:03;;;;;;;2.33;2.22;;;11.60;99.90;;;;;;4976637;28;20203;-70
2023/05/14 15:35:30;;;;;;;2.53;2.33;;;11.50;99.90;;;;;;4976539;28;20512;-70
2023/05/14 15:37:56;;;;;;;2.47;2.28;;;11.50;99.90;;;;;;4976376;28;20249;-70
2023/05/14 15:40:27;;;;;;;2.40;2.40;;;11.60;99.90;;;;;;4976370;28;20251;-70
2023/05/14 15:42:53;;;;;;;3.10;2.90;;;11.70;99.90;;;;;;4976403;28;20200;-70
2023/05/14 15:45:20;;;;;;;2.83;2.72;;;11.70;99.90;;;;;;4976405;28;20610;-68
2023/05/14 15:47:47;;;;;;;2.88;2.67;;;11.90;99.90;;;;;;4976233;28;20199;-68
2023/05/14 15:50:14;;;;;;;2.58;2.47;;;11.90;99.90;;;;;;4976046;28;20231;-69
2023/05/14 15:52:41;;;;;;;2.60;2.40;;;12.00;99.90;;;;;;4976197;28;20211;-71
2023/05/14 15:55:08;;;;;;;2.08;2.03;;;12.00;99.90;;;;;;4976081;28;20203;-70
2023/05/14 15:57:36;;;;;;;2.53;2.42;;;12.10;99.90;;;;;;4976048;28;20291;-70
2023/05/14 16:00:09;;;;;;;2.40;2.15;;;12.20;99.90;;;;;;4976022;28;20223;-71
2023/05/14 16:02:36;;;;;;;2.10;2.00;;;12.20;99.90;;;;;;4977619;28;20210;-71
2023/05/14 16:05:04;;;;;;;2.08;1.98;;;12.30;99.90;;;;;;4980278;28;20215;-71
2023/05/14 16:07:32;;;;;;;1.92;1.80;;;12.40;99.90;;;;;;4979864;28;20286;-71
2023/05/14 16:09:58;;;;;;;2.15;2.10;;;12.50;99.90;;;;;;4978462;28;20219;-71
2023/05/14 16:12:26;;;;;;;1.65;1.65;;;12.60;99.90;;;;;;4979776;28;20219;-72
2023/05/14 16:14:55;;;;;;;1.88;1.80;;;12.70;99.90;;;;;;4978776;28;20287;-72
2023/05/14 16:17:22;;;;;;;2.20;2.10;;;12.80;99.90;;;;;;4979466;28;20211;-71
2023/05/14 16:19:49;;;;;;;2.28;2.13;;;13.00;99.90;;;;;;4979166;28;20294;-72
2023/05/14 16:22:17;;;;;;;2.05;2.03;;;13.00;99.90;;;;;;4978615;28;20199;-72
2023/05/14 16:24:44;;;;;;;2.58;2.47;;;13.00;99.90;;;;;;4979487;28;20215;-71
2023/05/14 16:27:12;;;;;;;1.90;1.80;;;12.90;99.90;;;;;;4978994;28;20211;-70
2023/05/14 16:29:39;;;;;;;2.25;2.15;;;12.90;99.90;;;;;;4979235;28;20315;-71
2023/05/14 16:32:08;;;;;;;1.92;1.92;;;12.80;99.90;;;;;;4978945;28;20797;-71
2023/05/14 16:34:35;;;;;;;2.40;2.30;;;12.70;99.90;;;;;;4977486;28;20230;-71
2023/05/14 16:37:02;;;;;;;1.70;1.70;;;12.70;99.90;;;;;;4975951;28;20211;-70
2023/05/14 16:39:28;;;;;;;1.65;1.65;;;12.60;99.90;;;;;;4976273;28;20680;-70
2023/05/14 16:41:56;;;;;;;2.17;2.03;;;12.60;99.90;;;;;;4976839;28;20266;-74
2023/05/14 16:44:23;;;;;;;1.67;1.67;;;12.60;99.90;;;;;;4979081;28;20263;-70
2023/05/14 16:46:51;;;;;;;1.60;1.60;;;12.60;99.90;;;;;;4978417;28;20203;-70
2023/05/14 16:49:21;;;;;;;1.60;1.52;;;12.40;99.90;;;;;;4977751;28;20214;-70
2023/05/14 16:51:47;;;;;;;1.77;1.67;;;12.40;99.90;;;;;;4976166;28;20208;-70
2023/05/14 16:54:14;;;;;;;2.03;1.92;;;12.30;99.90;;;;;;4976787;28;20203;-70
2023/05/14 16:56:41;;;;;;;2.17;1.92;;;12.30;99.90;;;;;;4976982;28;20207;-70
2023/05/14 16:59:08;;;;;;;1.90;1.80;;;12.30;99.90;;;;;;4975955;28;20574;-70
2023/05/14 17:01:35;;;;;;;1.83;1.80;;;12.40;99.90;;;;;;4975632;28;20200;-70
2023/05/14 17:04:01;;;;;;;1.75;1.75;;;12.40;99.90;;;;;;4975159;28;20213;-70
2023/05/14 17:06:29;;;;;;;1.65;1.65;;;12.50;99.90;;;;;;4975399;28;20203;-69
2023/05/14 17:08:56;;;;;;;2.00;2.00;;;12.50;99.90;;;;;;4975225;28;20262;-70
2023/05/14 17:11:23;;;;;;;1.73;1.63;;;12.60;99.90;;;;;;4975105;28;20234;-68
2023/05/14 17:13:50;;;;;;;1.60;1.60;;;12.60;99.90;;;;;;4975045;28;20291;-70
2023/05/14 17:16:16;;;;;;;1.88;1.77;;;12.60;99.90;;;;;;4975462;28;20214;-70
2023/05/14 17:18:44;;;;;;;1.45;1.45;;;12.50;99.90;;;;;;4976067;28;20203;-70
2023/05/14 17:21:11;;;;;;;2.25;1.30;;;12.40;99.90;;;;;;4975792;28;20314;-69